createdAt,value
2022-09-29T00:01:08.499Z,92794.84
2022-09-29T00:03:36.860Z,92800.28
2022-09-29T00:06:03.728Z,92785.19
2022-09-29T00:08:32.367Z,92790.53
2022-09-29T00:10:59.048Z,92787.31
2022-09-29T00:13:27.406Z,92787.09
2022-09-29T00:15:59.690Z,92794.13
2022-09-29T00:18:26.516Z,92793.69
2022-09-29T00:21:01.719Z,92786.53
2022-09-29T00:23:31.071Z,92783.88
2022-09-29T00:26:08.445Z,92777.31
2022-09-29T00:28:36.787Z,92784.53
2022-09-29T00:31:05.211Z,92776.22
2022-09-29T00:33:33.943Z,92765.81
2022-09-29T00:36:03.651Z,92756.50
2022-09-29T00:38:31.121Z,92763.59
2022-09-29T00:40:58.038Z,92777.44
2022-09-29T00:43:49.570Z,92781.06
2022-09-29T00:46:21.019Z,92774.63
2022-09-29T00:48:48.299Z,92777.81
2022-09-29T00:51:16.676Z,92769.47
2022-09-29T00:53:44.751Z,92758.81
2022-09-29T00:56:15.234Z,92776.41
2022-09-29T00:58:54.751Z,92775.75
2022-09-29T01:01:23.795Z,92771.97
2022-09-29T01:03:56.209Z,92776.78
2022-09-29T01:06:29.696Z,92780.66
2022-09-29T01:09:06.791Z,92789.00
2022-09-29T01:11:33.684Z,92785.16
2022-09-29T01:14:05.098Z,92778.50
2022-09-29T01:16:32.811Z,92775.41
2022-09-29T01:19:02.785Z,92757.44
2022-09-29T01:21:38.531Z,92765.63
2022-09-29T01:24:56.920Z,92766.56
2022-09-29T01:27:49.348Z,92770.22
2022-09-29T01:30:19.942Z,92769.97
2022-09-29T01:33:05.648Z,92771.53
2022-09-29T01:35:35.347Z,92774.53
2022-09-29T01:38:33.072Z,92771.31
2022-09-29T01:41:09.394Z,92768.41
2022-09-29T01:43:57.899Z,92767.97
2022-09-29T01:46:29.279Z,92767.22
2022-09-29T01:48:58.279Z,92773.28
2022-09-29T01:51:56.879Z,92780.66
2022-09-29T01:54:40.737Z,92787.97
2022-09-29T01:57:13.736Z,92784.09
2022-09-29T01:59:52.708Z,92782.00
2022-09-29T02:02:30.365Z,92784.53
2022-09-29T02:05:05.155Z,92780.97
2022-09-29T02:07:37.558Z,92781.16
2022-09-29T02:10:07.013Z,92771.38
2022-09-29T02:12:36.512Z,92762.34
2022-09-29T02:15:07.698Z,92757.75
2022-09-29T02:17:39.643Z,92753.56
2022-09-29T02:20:06.948Z,92764.56
2022-09-29T02:22:35.155Z,92773.84
2022-09-29T02:25:02.563Z,92777.94
2022-09-29T02:27:29.606Z,92776.28
2022-09-29T02:29:59.323Z,92768.69
2022-09-29T02:32:26.775Z,92759.44
2022-09-29T02:34:54.738Z,92774.88
2022-09-29T02:37:43.355Z,92771.63
2022-09-29T02:40:32.465Z,92772.06
2022-09-29T02:43:02.013Z,92773.44
2022-09-29T02:45:44.906Z,92766.22
2022-09-29T02:48:29.908Z,92760.91
2022-09-29T02:51:18.140Z,92768.28
2022-09-29T02:53:57.887Z,92764.66
2022-09-29T02:56:44.655Z,92767.00
2022-09-29T02:59:20.433Z,92759.94
2022-09-29T03:01:53.460Z,92760.69
2022-09-29T03:04:22.112Z,92757.81
2022-09-29T03:06:49.392Z,92753.25
2022-09-29T03:09:16.166Z,92754.38
2022-09-29T03:11:43.027Z,92751.38
2022-09-29T03:14:10.270Z,92750.50
2022-09-29T03:16:37.390Z,92747.28
2022-09-29T03:19:05.900Z,92737.75
2022-09-29T03:21:32.681Z,92729.66
2022-09-29T03:23:59.961Z,92729.16
2022-09-29T03:26:26.618Z,92726.94
2022-09-29T03:28:53.764Z,92733.19
2022-09-29T03:31:20.464Z,92741.41
2022-09-29T03:33:47.773Z,92733.69
2022-09-29T03:36:14.483Z,92738.91
2022-09-29T03:38:41.226Z,92741.78
2022-09-29T03:41:08.093Z,92751.84
2022-09-29T03:43:34.777Z,92742.69
2022-09-29T03:46:01.590Z,92755.31
2022-09-29T03:48:31.411Z,92754.50
2022-09-29T03:50:58.088Z,92758.47
2022-09-29T03:53:24.787Z,92756.25
2022-09-29T03:55:51.442Z,92756.34
2022-09-29T03:58:19.167Z,92765.91
2022-09-29T04:00:48.573Z,92760.97
2022-09-29T04:03:15.612Z,92766.47
2022-09-29T04:05:42.367Z,92753.19
2022-09-29T04:08:09.075Z,92752.56
2022-09-29T04:10:39.522Z,92744.16
2022-09-29T04:13:07.032Z,92755.72
2022-09-29T04:15:34.001Z,92754.94
2022-09-29T04:18:00.690Z,92744.75
2022-09-29T04:20:27.503Z,92743.31
2022-09-29T04:22:54.158Z,92742.31
2022-09-29T04:25:21.042Z,92739.22
2022-09-29T04:27:47.776Z,92736.78
2022-09-29T04:30:15.300Z,92747.19
2022-09-29T04:32:42.631Z,92755.03
2022-09-29T04:35:09.673Z,92750.69
2022-09-29T04:37:36.475Z,92752.44
2022-09-29T04:40:05.196Z,92740.50
2022-09-29T04:42:31.903Z,92739.03
2022-09-29T04:44:58.699Z,92742.91
2022-09-29T04:47:25.559Z,92747.47
2022-09-29T04:49:52.216Z,92748.56
2022-09-29T04:52:18.892Z,92751.09
2022-09-29T04:54:45.544Z,92748.19
2022-09-29T04:57:12.320Z,92750.44
2022-09-29T04:59:38.990Z,92752.22
2022-09-29T05:02:05.766Z,92744.25
2022-09-29T05:04:32.557Z,92748.34
2022-09-29T05:06:59.231Z,92747.81
2022-09-29T05:09:29.938Z,92742.38
2022-09-29T05:11:59.310Z,92757.03
2022-09-29T05:14:26.053Z,92760.94
2022-09-29T05:16:55.148Z,92764.25
2022-09-29T05:19:22.072Z,92762.66
2022-09-29T05:21:48.973Z,92766.41
2022-09-29T05:24:15.792Z,92772.25
2022-09-29T05:26:42.520Z,92776.56
2022-09-29T05:29:09.237Z,92768.59
2022-09-29T05:31:35.995Z,92775.91
2022-09-29T05:34:02.830Z,92777.53
2022-09-29T05:36:29.466Z,92774.75
2022-09-29T05:38:56.414Z,92769.88
2022-09-29T05:41:23.434Z,92778.97
2022-09-29T05:43:51.950Z,92781.88
2022-09-29T05:46:18.923Z,92780.22
2022-09-29T05:48:46.662Z,92784.41
2022-09-29T05:51:18.399Z,92781.00
2022-09-29T05:53:48.757Z,92783.75
2022-09-29T05:56:19.209Z,92794.72
2022-09-29T05:58:46.371Z,92791.72
2022-09-29T06:01:20.276Z,92794.38
2022-09-29T06:03:47.319Z,92791.22
2022-09-29T06:06:17.467Z,92787.19
2022-09-29T06:08:44.949Z,92783.88
2022-09-29T06:11:15.609Z,92776.56
2022-09-29T06:13:44.674Z,92783.09
2022-09-29T06:16:13.301Z,92783.53
2022-09-29T06:18:40.723Z,92777.19
2022-09-29T06:21:13.202Z,92784.16
2022-09-29T06:23:40.123Z,92786.56
2022-09-29T06:26:10.877Z,92791.53
2022-09-29T06:28:38.037Z,92790.44
2022-09-29T06:31:07.349Z,92783.91
2022-09-29T06:33:36.750Z,92786.91
2022-09-29T06:36:27.205Z,92787.06
2022-09-29T06:38:53.899Z,92790.84
2022-09-29T06:41:21.062Z,92789.50
2022-09-29T06:43:47.735Z,92787.78
2022-09-29T06:46:14.587Z,92782.88
2022-09-29T06:48:41.310Z,92785.81
2022-09-29T06:51:10.339Z,92778.00
2022-09-29T06:53:39.039Z,92784.19
2022-09-29T06:56:06.836Z,92782.06
2022-09-29T06:58:34.130Z,92785.25
2022-09-29T07:01:02.019Z,92788.41
2022-09-29T07:03:30.243Z,92789.19
2022-09-29T07:06:24.661Z,92795.19
2022-09-29T07:08:43.729Z,92798.91
2022-09-29T07:11:11.503Z,92804.16
2022-09-29T07:13:39.054Z,92804.34
2022-09-29T07:16:11.254Z,92811.19
2022-09-29T07:18:40.427Z,92803.97
2022-09-29T07:21:16.067Z,92804.16
2022-09-29T07:23:42.762Z,92808.72
2022-09-29T07:26:09.609Z,92808.91
2022-09-29T07:28:36.757Z,92814.00
2022-09-29T07:31:17.550Z,92807.34
2022-09-29T07:33:45.180Z,92811.13
2022-09-29T07:36:13.135Z,92795.97
2022-09-29T07:38:39.813Z,92798.00
2022-09-29T07:41:11.549Z,92800.03
2022-09-29T07:43:39.559Z,92795.78
2022-09-29T07:46:07.630Z,92799.84
2022-09-29T07:48:35.788Z,92799.78
2022-09-29T07:51:07.994Z,92807.44
2022-09-29T07:53:36.255Z,92804.44
2022-09-29T07:56:05.779Z,92805.81
2022-09-29T07:58:33.265Z,92804.94
2022-09-29T08:01:01.484Z,92806.25
2022-09-29T08:03:30.137Z,92803.22
2022-09-29T08:06:00.771Z,92805.97
2022-09-29T08:08:27.598Z,92807.06
2022-09-29T08:11:21.010Z,92800.03
2022-09-29T08:13:56.444Z,92805.66
2022-09-29T08:16:23.721Z,92809.94
2022-09-29T08:18:50.538Z,92809.16
2022-09-29T08:21:17.265Z,92808.28
2022-09-29T08:23:44.237Z,92806.84
2022-09-29T08:26:14.331Z,92812.28
2022-09-29T08:28:42.273Z,92813.53
2022-09-29T08:31:15.328Z,92810.16
2022-09-29T08:33:41.989Z,92818.09
2022-09-29T08:36:15.120Z,92819.94
2022-09-29T08:38:50.754Z,92832.00
2022-09-29T08:41:54.784Z,92827.38
2022-09-29T08:44:38.536Z,92832.84
2022-09-29T08:47:15.508Z,92836.66
2022-09-29T08:49:51.141Z,92834.13
2022-09-29T08:52:52.442Z,92844.16
2022-09-29T08:55:21.983Z,92848.31
2022-09-29T08:57:57.206Z,92845.09
2022-09-29T09:00:38.808Z,92861.00
2022-09-29T09:03:33.163Z,92859.09
2022-09-29T09:06:28.316Z,92860.56
2022-09-29T09:09:13.347Z,92862.31
2022-09-29T09:12:02.689Z,92857.91
2022-09-29T09:14:55.502Z,92856.91
2022-09-29T09:17:44.041Z,92864.00
2022-09-29T09:20:29.136Z,92867.44
2022-09-29T09:23:01.132Z,92869.84
2022-09-29T09:25:55.669Z,92869.84
2022-09-29T09:28:38.019Z,92872.53
2022-09-29T09:31:20.110Z,92871.41
2022-09-29T09:34:03.369Z,92874.00
2022-09-29T09:36:45.448Z,92877.13
2022-09-29T09:39:18.350Z,92869.09
2022-09-29T09:41:48.570Z,92876.19
2022-09-29T09:44:19.890Z,92864.00
2022-09-29T09:46:54.461Z,92866.69
2022-09-29T09:49:26.904Z,92862.03
2022-09-29T09:52:03.700Z,92859.34
2022-09-29T09:54:35.601Z,92860.56
2022-09-29T09:57:23.193Z,92853.88
2022-09-29T10:00:09.880Z,92862.50
2022-09-29T10:02:51.295Z,92861.69
2022-09-29T10:05:38.821Z,92858.75
2022-09-29T10:08:14.419Z,92869.31
2022-09-29T10:10:56.360Z,92863.22
2022-09-29T10:13:30.710Z,92872.84
2022-09-29T10:15:57.226Z,92880.34
2022-09-29T10:18:27.154Z,92886.91
2022-09-29T10:20:53.881Z,92894.72
2022-09-29T10:23:36.234Z,92890.78
2022-09-29T10:26:16.758Z,92889.25
2022-09-29T10:28:47.520Z,92890.22
2022-09-29T10:31:35.304Z,92895.81
2022-09-29T10:34:13.715Z,92900.25
2022-09-29T10:36:58.606Z,92892.38
2022-09-29T10:39:41.035Z,92892.34
2022-09-29T10:42:33.849Z,92894.41
2022-09-29T10:45:14.447Z,92894.66
2022-09-29T10:47:44.961Z,92896.84
2022-09-29T10:50:22.531Z,92909.56
2022-09-29T10:52:56.299Z,92908.56
2022-09-29T10:55:33.570Z,92905.94
2022-09-29T10:58:06.227Z,92899.03
2022-09-29T11:00:35.671Z,92905.16
2022-09-29T11:03:05.042Z,92902.84
2022-09-29T11:05:32.246Z,92907.44
2022-09-29T11:07:59.150Z,92908.78
2022-09-29T11:10:38.919Z,92909.59
2022-09-29T11:13:28.295Z,92914.25
2022-09-29T11:16:04.221Z,92913.59
2022-09-29T11:18:35.931Z,92918.13
2022-09-29T11:21:23.242Z,92920.59
2022-09-29T11:23:58.374Z,92919.28
2022-09-29T11:26:24.984Z,92917.28
2022-09-29T11:29:07.790Z,92924.44
2022-09-29T11:32:14.836Z,92920.53
2022-09-29T11:35:09.436Z,92928.69
2022-09-29T11:38:08.508Z,92924.19
2022-09-29T11:40:53.934Z,92922.44
2022-09-29T11:43:43.205Z,92915.84
2022-09-29T11:46:20.263Z,92914.94
2022-09-29T11:48:57.973Z,92894.41
2022-09-29T11:51:36.857Z,92901.56
2022-09-29T11:54:50.627Z,92897.97
2022-09-29T11:57:36.110Z,92899.19
2022-09-29T12:00:08.932Z,92884.88
2022-09-29T12:02:48.076Z,92884.56
2022-09-29T12:05:14.807Z,92885.69
2022-09-29T12:08:06.654Z,92884.69
2022-09-29T12:10:57.865Z,92888.19
2022-09-29T12:13:43.264Z,92887.00
2022-09-29T12:16:17.639Z,92889.09
2022-09-29T12:18:58.466Z,92901.84
2022-09-29T12:21:37.795Z,92904.66
2022-09-29T12:24:10.474Z,92897.16
2022-09-29T12:26:39.107Z,92886.56
2022-09-29T12:29:31.231Z,92882.75
2022-09-29T12:32:00.434Z,92887.34
2022-09-29T12:34:46.778Z,92899.09
2022-09-29T12:37:28.425Z,92892.09
2022-09-29T12:40:05.928Z,92894.34
2022-09-29T12:43:02.699Z,92895.94
2022-09-29T12:45:37.670Z,92890.91
2022-09-29T12:48:22.901Z,92901.75
2022-09-29T12:51:02.511Z,92901.03
2022-09-29T12:53:38.797Z,92906.47
2022-09-29T12:56:58.780Z,92904.56
2022-09-29T12:59:33.330Z,92906.84
2022-09-29T13:02:05.368Z,92902.44
2022-09-29T13:04:35.413Z,92896.88
2022-09-29T13:07:41.225Z,92895.69
2022-09-29T13:10:40.809Z,92902.56
2022-09-29T13:13:50.603Z,92911.72
2022-09-29T13:16:36.484Z,92912.84
2022-09-29T13:19:57.857Z,92915.88
2022-09-29T13:23:02.763Z,92911.81
2022-09-29T13:25:56.479Z,92908.66
2022-09-29T13:28:38.031Z,92906.28
2022-09-29T13:31:09.308Z,92909.38
2022-09-29T13:33:36.504Z,92914.34
2022-09-29T13:36:03.789Z,92913.63
2022-09-29T13:38:38.130Z,92917.53
2022-09-29T13:41:38.113Z,92917.50
2022-09-29T13:44:19.220Z,92917.91
2022-09-29T13:46:45.937Z,92915.53
2022-09-29T13:49:14.176Z,92912.06
2022-09-29T13:52:20.378Z,92920.06
2022-09-29T13:54:47.392Z,92920.31
2022-09-29T13:57:16.913Z,92920.31
2022-09-29T13:59:47.913Z,92930.63
2022-09-29T14:02:49.465Z,92938.59
2022-09-29T14:05:25.342Z,92934.00
2022-09-29T14:07:55.134Z,92932.94
2022-09-29T14:10:27.814Z,92930.66
2022-09-29T14:13:03.458Z,92924.13
2022-09-29T14:15:51.265Z,92926.47
2022-09-29T14:18:39.159Z,92933.06
2022-09-29T14:21:11.287Z,92941.63
2022-09-29T14:23:47.336Z,92936.22
2022-09-29T14:26:46.701Z,92939.66
2022-09-29T14:29:19.072Z,92936.31
2022-09-29T14:31:49.912Z,92947.88
2022-09-29T14:34:18.642Z,92951.00
2022-09-29T14:36:48.223Z,92954.13
2022-09-29T14:39:35.526Z,92954.13
2022-09-29T14:42:02.252Z,92954.84
2022-09-29T14:44:52.417Z,92944.13
2022-09-29T14:48:04.907Z,92956.03
2022-09-29T14:50:59.152Z,92958.78
2022-09-29T14:53:52.573Z,92964.19
2022-09-29T14:56:36.132Z,92963.41
2022-09-29T14:59:24.994Z,92970.41
2022-09-29T15:02:19.259Z,92966.22
2022-09-29T15:04:46.668Z,92970.63
2022-09-29T15:07:16.943Z,92977.09
2022-09-29T15:09:53.178Z,92977.81
2022-09-29T15:12:26.616Z,92969.72
2022-09-29T15:14:55.199Z,92968.44
2022-09-29T15:17:39.414Z,92971.50
2022-09-29T15:20:18.371Z,92978.78
2022-09-29T15:23:00.347Z,92982.59
2022-09-29T15:25:32.148Z,92979.50
2022-09-29T15:28:42.485Z,92984.44
2022-09-29T15:31:16.665Z,92995.06
2022-09-29T15:33:44.860Z,92982.78
2022-09-29T15:36:22.059Z,92994.25
2022-09-29T15:39:01.337Z,92997.66
2022-09-29T15:41:31.512Z,92996.00
2022-09-29T15:44:00.509Z,92991.69
2022-09-29T15:46:36.328Z,92997.19
2022-09-29T15:49:17.448Z,92997.59
2022-09-29T15:52:00.772Z,93004.16
2022-09-29T15:54:34.399Z,93007.91
2022-09-29T15:57:21.004Z,93004.03
2022-09-29T15:59:54.304Z,93003.56
2022-09-29T16:02:23.889Z,93007.78
2022-09-29T16:04:55.329Z,93009.28
2022-09-29T16:07:28.138Z,93008.84
2022-09-29T16:10:18.966Z,93016.06
2022-09-29T16:12:52.417Z,93017.19
2022-09-29T16:15:34.876Z,93018.50
2022-09-29T16:18:13.573Z,93019.09
2022-09-29T16:20:43.916Z,93021.66
2022-09-29T16:23:28.485Z,93031.59
2022-09-29T16:26:07.447Z,93036.88
2022-09-29T16:28:40.553Z,93028.50
2022-09-29T16:31:18.477Z,93029.63
2022-09-29T16:33:54.281Z,93034.56
2022-09-29T16:36:23.721Z,93028.81
2022-09-29T16:38:53.424Z,93034.53
2022-09-29T16:41:41.087Z,93035.53
2022-09-29T16:44:17.494Z,93040.47
2022-09-29T16:47:12.631Z,93037.28
2022-09-29T16:49:53.369Z,93050.50
2022-09-29T16:52:20.052Z,93046.25
2022-09-29T16:54:48.011Z,93049.28
2022-09-29T16:57:30.445Z,93053.44
2022-09-29T16:59:58.704Z,93055.34
2022-09-29T17:02:27.073Z,93056.41
2022-09-29T17:04:56.080Z,93058.19
2022-09-29T17:07:25.887Z,93058.13
2022-09-29T17:09:58.195Z,93059.66
2022-09-29T17:12:25.544Z,93067.69
2022-09-29T17:14:52.307Z,93068.41
2022-09-29T17:17:23.018Z,93070.66
2022-09-29T17:19:50.963Z,93070.22
2022-09-29T17:22:31.219Z,93074.72
2022-09-29T17:24:59.009Z,93075.41
2022-09-29T17:27:45.906Z,93083.41
2022-09-29T17:30:17.835Z,93081.78
2022-09-29T17:32:46.900Z,93086.34
2022-09-29T17:35:14.776Z,93071.50
2022-09-29T17:37:44.067Z,93073.81
2022-09-29T17:40:25.217Z,93072.25
2022-09-29T17:42:52.114Z,93079.88
2022-09-29T17:45:20.489Z,93085.13
2022-09-29T17:47:49.883Z,93086.09
2022-09-29T17:50:30.969Z,93090.19
2022-09-29T17:53:00.985Z,93101.50
2022-09-29T17:55:28.083Z,93104.88
2022-09-29T17:57:55.409Z,93102.03
2022-09-29T18:00:26.145Z,93121.09
2022-09-29T18:02:57.475Z,93119.53
2022-09-29T18:05:26.689Z,93118.38
2022-09-29T18:07:55.872Z,93121.72
2022-09-29T18:10:28.114Z,93122.75
2022-09-29T18:12:55.007Z,93121.56
2022-09-29T18:15:22.758Z,93123.78
2022-09-29T18:17:49.501Z,93126.81
2022-09-29T18:20:19.294Z,93125.59
2022-09-29T18:22:48.228Z,93136.63
2022-09-29T18:25:19.415Z,93128.91
2022-09-29T18:27:47.151Z,93129.59
2022-09-29T18:30:20.317Z,93126.47
2022-09-29T18:32:48.879Z,93133.72
2022-09-29T18:35:19.181Z,93134.16
2022-09-29T18:37:46.126Z,93140.28
2022-09-29T18:40:13.355Z,93141.84
2022-09-29T18:42:42.310Z,93141.41
2022-09-29T18:45:22.996Z,93148.06
2022-09-29T18:48:03.464Z,93147.78
2022-09-29T18:50:51.653Z,93142.94
2022-09-29T18:53:20.460Z,93147.59
2022-09-29T18:55:49.528Z,93149.50
2022-09-29T18:58:22.158Z,93147.16
2022-09-29T19:00:53.868Z,93151.75
2022-09-29T19:03:23.580Z,93159.69
2022-09-29T19:05:51.185Z,93159.25
2022-09-29T19:08:19.043Z,93155.28
2022-09-29T19:10:58.394Z,93160.56
2022-09-29T19:13:26.106Z,93171.50
2022-09-29T19:15:56.993Z,93172.81
2022-09-29T19:18:24.454Z,93176.53
2022-09-29T19:20:56.398Z,93177.41
2022-09-29T19:23:25.215Z,93189.09
2022-09-29T19:25:54.040Z,93186.50
2022-09-29T19:28:22.259Z,93191.50
2022-09-29T19:30:49.843Z,93190.28
2022-09-29T19:33:20.515Z,93184.16
2022-09-29T19:35:51.074Z,93191.75
2022-09-29T19:38:18.917Z,93192.09
2022-09-29T19:40:46.988Z,93187.88
2022-09-29T19:43:14.571Z,93189.78
2022-09-29T19:45:43.297Z,93195.66
2022-09-29T19:48:14.469Z,93194.03
2022-09-29T19:50:59.920Z,93194.03
2022-09-29T19:53:26.804Z,93198.00
2022-09-29T19:55:53.554Z,93197.22
2022-09-29T19:58:20.772Z,93197.56
2022-09-29T20:00:47.459Z,93186.03
2022-09-29T20:03:14.360Z,93197.84
2022-09-29T20:05:41.154Z,93196.97
2022-09-29T20:08:08.235Z,93201.44
2022-09-29T20:10:36.363Z,93199.78
2022-09-29T20:13:03.578Z,93208.91
2022-09-29T20:15:30.461Z,93208.41
2022-09-29T20:17:57.284Z,93204.50
2022-09-29T20:20:24.029Z,93206.75
2022-09-29T20:22:51.602Z,93208.19
2022-09-29T20:25:18.553Z,93209.56
2022-09-29T20:27:45.269Z,93213.84
2022-09-29T20:30:12.146Z,93217.84
2022-09-29T20:32:38.868Z,93221.19
2022-09-29T20:35:06.182Z,93221.53
2022-09-29T20:37:33.286Z,93228.88
2022-09-29T20:40:00.477Z,93222.53
2022-09-29T20:42:27.214Z,93231.41
2022-09-29T20:44:56.315Z,93233.75
2022-09-29T20:47:27.252Z,93244.50
2022-09-29T20:49:55.140Z,93248.75
2022-09-29T20:52:23.702Z,93241.50
2022-09-29T20:54:50.394Z,93244.50
2022-09-29T20:57:17.437Z,93249.19
2022-09-29T20:59:44.637Z,93243.22
2022-09-29T21:02:13.110Z,93256.59
2022-09-29T21:04:40.659Z,93254.84
2022-09-29T21:07:27.346Z,93263.75
2022-09-29T21:09:54.328Z,93255.19
2022-09-29T21:12:21.009Z,93266.19
2022-09-29T21:14:47.714Z,93268.75
2022-09-29T21:17:14.420Z,93265.75
2022-09-29T21:19:41.147Z,93273.88
2022-09-29T21:22:07.860Z,93280.44
2022-09-29T21:24:37.770Z,93275.53
2022-09-29T21:27:09.033Z,93282.00
2022-09-29T21:29:35.906Z,93279.09
2022-09-29T21:32:02.686Z,93279.97
2022-09-29T21:34:29.439Z,93274.72
2022-09-29T21:36:56.117Z,93272.16
2022-09-29T21:39:23.056Z,93277.84
2022-09-29T21:41:49.901Z,93279.66
2022-09-29T21:44:19.787Z,93281.75
2022-09-29T21:46:47.234Z,93288.31
2022-09-29T21:49:16.487Z,93282.22
2022-09-29T21:51:46.364Z,93289.00
2022-09-29T21:54:23.585Z,93289.00
2022-09-29T21:56:51.912Z,93290.22
2022-09-29T21:59:21.799Z,93290.66
2022-09-29T22:01:49.112Z,93287.88
2022-09-29T22:04:16.528Z,93290.66
2022-09-29T22:06:45.200Z,93293.13
2022-09-29T22:09:16.440Z,93296.22
2022-09-29T22:11:43.226Z,93289.69
2022-09-29T22:14:12.658Z,93295.34
2022-09-29T22:16:40.283Z,93293.03
2022-09-29T22:19:24.006Z,93307.59
2022-09-29T22:21:53.567Z,93310.91
2022-09-29T22:24:21.892Z,93307.91
2022-09-29T22:26:48.844Z,93305.69
2022-09-29T22:29:15.602Z,93309.91
2022-09-29T22:31:42.329Z,93306.22
2022-09-29T22:34:11.226Z,93313.56
2022-09-29T22:36:39.564Z,93315.34
2022-09-29T22:39:07.715Z,93320.94
2022-09-29T22:41:39.806Z,93321.03
2022-09-29T22:44:07.902Z,93325.34
2022-09-29T22:46:35.615Z,93324.91
2022-09-29T22:49:02.440Z,93330.25
2022-09-29T22:51:29.186Z,93325.81
2022-09-29T22:53:55.905Z,93328.81
2022-09-29T22:56:30.425Z,93329.25
2022-09-29T22:59:05.056Z,93328.38
2022-09-29T23:01:33.615Z,93328.56
2022-09-29T23:04:00.846Z,93329.72
2022-09-29T23:06:27.917Z,93330.72
2022-09-29T23:08:55.678Z,93323.38
2022-09-29T23:11:23.616Z,93312.94
2022-09-29T23:13:51.292Z,93320.69
2022-09-29T23:16:18.522Z,93321.03
2022-09-29T23:18:46.267Z,93329.34
2022-09-29T23:21:19.544Z,93328.69
2022-09-29T23:23:52.374Z,93326.03
2022-09-29T23:26:19.264Z,93328.94
2022-09-29T23:28:46.005Z,93321.81
2022-09-29T23:31:14.931Z,93323.13
2022-09-29T23:33:42.499Z,93320.81
2022-09-29T23:36:12.592Z,93323.13
2022-09-29T23:39:00.321Z,93322.69
2022-09-29T23:41:28.149Z,93321.03
2022-09-29T23:43:56.493Z,93321.03
2022-09-29T23:46:25.735Z,93323.34
2022-09-29T23:48:52.503Z,93318.91
2022-09-29T23:51:19.898Z,93326.59
2022-09-29T23:53:46.763Z,93316.13
2022-09-29T23:56:15.540Z,93320.81
2022-09-29T23:58:42.627Z,93322.91
